JBU3026 KSYR-KCLT
Flight info
| Callsign | JBU3026 |
|---|---|
| Flight time | 1h 31m |
| Altitude | 34000 |
| Route | SYR2 EXTOL J59 PSB Q71 GEFFS HVQ LINDIZ PARQ4 |
| Aircraft | A20N/M-SDE2E3FGHIRWXY/LB1 |
Departure
| Time | 2026-05-04 06:14 |
|---|---|
| Airport | Syracuse Hancock International Airport (KSYR) |
Arrival
| Time | 2026-05-04 07:46 |
|---|---|
| Airport | Charlotte Douglas International Airport (KCLT) |
| Time | Latitude | Longitude | Altitude | Speed | Heading |
|---|---|---|---|---|---|
| 2026-05-04 05:51 | 43.11257 | -76.11005 | 427 ft | 0 kts | 358° |
| 2026-05-04 06:06 | 43.11250 | -76.11004 | 427 ft | 2 kts | 355° |
| 2026-05-04 06:06 | 43.11233 | -76.11002 | 421 ft | 2 kts | 351° |
| 2026-05-04 06:06 | 43.11217 | -76.10997 | 414 ft | 2 kts | 340° |
| 2026-05-04 06:06 | 43.11203 | -76.10986 | 415 ft | 2 kts | 310° |
| 2026-05-04 06:07 | 43.11197 | -76.10966 | 421 ft | 2 kts | 273° |
| 2026-05-04 06:07 | 43.11197 | -76.10958 | 419 ft | 0 kts | 269° |
| 2026-05-04 06:09 | 43.11195 | -76.11003 | 428 ft | 8 kts | 267° |
| 2026-05-04 06:11 | 43.10980 | -76.11521 | 425 ft | 22 kts | 267° |
| 2026-05-04 06:11 | 43.10973 | -76.11729 | 426 ft | 23 kts | 267° |
| 2026-05-04 06:13 | 43.10837 | -76.12132 | 425 ft | 69 kts | 87° |
| 2026-05-04 06:14 | 43.11102 | -76.01901 | 2167 ft | 271 kts | 90° |
| 2026-05-04 06:14 | 43.11102 | -75.99219 | 2699 ft | 291 kts | 100° |
| 2026-05-04 06:15 | 43.10483 | -75.96576 | 3459 ft | 294 kts | 127° |
| 2026-05-04 06:15 | 43.09048 | -75.94711 | 4390 ft | 280 kts | 161° |
| 2026-05-04 06:15 | 43.07231 | -75.94212 | 5303 ft | 261 kts | 195° |
| 2026-05-04 06:15 | 43.05640 | -75.95091 | 6132 ft | 248 kts | 223° |
| 2026-05-04 06:16 | 43.04353 | -75.96650 | 6960 ft | 248 kts | 232° |
| 2026-05-04 06:16 | 43.03222 | -75.98445 | 7793 ft | 250 kts | 236° |
| 2026-05-04 06:16 | 43.02156 | -76.00344 | 8678 ft | 254 kts | 237° |
| 2026-05-04 06:16 | 43.01087 | -76.02286 | 9558 ft | 258 kts | 237° |
| 2026-05-04 06:17 | 42.99977 | -76.04253 | 10316 ft | 267 kts | 236° |
| 2026-05-04 06:17 | 42.98771 | -76.06324 | 10681 ft | 290 kts | 234° |
| 2026-05-04 06:17 | 42.97440 | -76.08540 | 10996 ft | 313 kts | 233° |
| 2026-05-04 06:17 | 42.96001 | -76.10872 | 11542 ft | 326 kts | 233° |
| 2026-05-04 06:18 | 42.94512 | -76.13247 | 12352 ft | 332 kts | 232° |
| 2026-05-04 06:18 | 42.93017 | -76.15616 | 13202 ft | 336 kts | 232° |
| 2026-05-04 06:18 | 42.91484 | -76.18044 | 14041 ft | 339 kts | 232° |
| 2026-05-04 06:20 | 42.80392 | -76.35727 | 18955 ft | 364 kts | 233° |
| 2026-05-04 06:20 | 42.78741 | -76.38358 | 19539 ft | 368 kts | 233° |
| 2026-05-04 06:21 | 42.71952 | -76.49145 | 21846 ft | 382 kts | 233° |
| 2026-05-04 06:21 | 42.70212 | -76.51903 | 22393 ft | 386 kts | 233° |
| 2026-05-04 06:22 | 42.68456 | -76.54685 | 22912 ft | 389 kts | 233° |
| 2026-05-04 06:22 | 42.66657 | -76.57457 | 23447 ft | 394 kts | 230° |
| 2026-05-04 06:25 | 42.34260 | -76.83648 | 28568 ft | 434 kts | 214° |
| 2026-05-04 06:25 | 42.31625 | -76.85653 | 28931 ft | 435 kts | 214° |
| 2026-05-04 06:26 | 42.28985 | -76.87657 | 29358 ft | 435 kts | 214° |
| 2026-05-04 06:26 | 42.26350 | -76.89654 | 29862 ft | 434 kts | 214° |
| 2026-05-04 06:26 | 42.23723 | -76.91642 | 30289 ft | 432 kts | 214° |
| 2026-05-04 06:26 | 42.21105 | -76.93622 | 30648 ft | 431 kts | 214° |
| 2026-05-04 06:27 | 42.10700 | -77.01482 | 32013 ft | 429 kts | 215° |
| 2026-05-04 06:28 | 42.08123 | -77.03485 | 32349 ft | 427 kts | 216° |
| 2026-05-04 06:28 | 42.05587 | -77.05561 | 32664 ft | 426 kts | 217° |
| 2026-05-04 06:28 | 42.03074 | -77.07673 | 32989 ft | 425 kts | 218° |
| 2026-05-04 06:28 | 42.00570 | -77.09799 | 33311 ft | 425 kts | 218° |
| 2026-05-04 06:29 | 41.98074 | -77.11916 | 33636 ft | 424 kts | 218° |
| 2026-05-04 06:29 | 41.95609 | -77.13999 | 33884 ft | 425 kts | 217° |
| 2026-05-04 06:29 | 41.90593 | -77.18207 | 33940 ft | 423 kts | 217° |
| 2026-05-04 06:30 | 41.85604 | -77.22364 | 33948 ft | 422 kts | 217° |
| 2026-05-04 06:30 | 41.80614 | -77.26514 | 33945 ft | 422 kts | 217° |
| 2026-05-04 06:31 | 41.75664 | -77.30623 | 33945 ft | 422 kts | 217° |
| 2026-05-04 06:31 | 41.70677 | -77.34756 | 33949 ft | 421 kts | 217° |
| 2026-05-04 06:33 | 41.50766 | -77.51181 | 33967 ft | 421 kts | 217° |
| 2026-05-04 06:34 | 41.45777 | -77.55277 | 33965 ft | 421 kts | 217° |
| 2026-05-04 06:34 | 41.40787 | -77.59367 | 33973 ft | 421 kts | 217° |
| 2026-05-04 06:36 | 41.20852 | -77.75635 | 33984 ft | 421 kts | 217° |
| 2026-05-04 06:37 | 41.15854 | -77.79694 | 33985 ft | 421 kts | 217° |
| 2026-05-04 06:37 | 41.10854 | -77.83747 | 33990 ft | 421 kts | 217° |
| 2026-05-04 06:38 | 41.05889 | -77.87766 | 33993 ft | 421 kts | 217° |
| 2026-05-04 06:40 | 40.89210 | -78.02993 | 33988 ft | 411 kts | 231° |
| 2026-05-04 06:40 | 40.87296 | -78.05783 | 33990 ft | 410 kts | 232° |
| 2026-05-04 06:40 | 40.83563 | -78.11480 | 33998 ft | 410 kts | 233° |
| 2026-05-04 06:41 | 40.79857 | -78.17199 | 33994 ft | 410 kts | 233° |
| 2026-05-04 06:41 | 40.76132 | -78.22902 | 34004 ft | 410 kts | 233° |
| 2026-05-04 06:42 | 40.72421 | -78.28544 | 34005 ft | 410 kts | 233° |
| 2026-05-04 06:44 | 40.57449 | -78.51164 | 34008 ft | 409 kts | 233° |
| 2026-05-04 06:44 | 40.53726 | -78.56764 | 34005 ft | 409 kts | 233° |
| 2026-05-04 06:45 | 40.49976 | -78.62394 | 34003 ft | 409 kts | 233° |
| 2026-05-04 06:45 | 40.46222 | -78.68020 | 34012 ft | 409 kts | 233° |
| 2026-05-04 06:46 | 40.42469 | -78.73635 | 34007 ft | 409 kts | 233° |
| 2026-05-04 06:46 | 40.38737 | -78.79207 | 34006 ft | 409 kts | 233° |
| 2026-05-04 06:48 | 40.23668 | -79.01605 | 34006 ft | 409 kts | 233° |
| 2026-05-04 06:50 | 40.08658 | -79.23928 | 34015 ft | 409 kts | 234° |
| 2026-05-04 06:51 | 40.04957 | -79.29508 | 34017 ft | 409 kts | 233° |
| 2026-05-04 06:51 | 40.01226 | -79.35116 | 34022 ft | 409 kts | 233° |
| 2026-05-04 06:52 | 39.97484 | -79.40723 | 34021 ft | 410 kts | 233° |
| 2026-05-04 06:52 | 39.93736 | -79.46327 | 34023 ft | 410 kts | 233° |
| 2026-05-04 06:53 | 39.89986 | -79.51925 | 34019 ft | 410 kts | 233° |
| 2026-05-04 06:53 | 39.86252 | -79.57487 | 34032 ft | 411 kts | 233° |
| 2026-05-04 06:54 | 39.82493 | -79.63077 | 34026 ft | 410 kts | 233° |
| 2026-05-04 06:54 | 39.78732 | -79.68660 | 34016 ft | 410 kts | 233° |
| 2026-05-04 06:55 | 39.74969 | -79.74237 | 34043 ft | 411 kts | 233° |
| 2026-05-04 06:55 | 39.71223 | -79.79779 | 34040 ft | 411 kts | 233° |
| 2026-05-04 06:57 | 39.56136 | -80.01997 | 34044 ft | 411 kts | 233° |
| 2026-05-04 06:58 | 39.52352 | -80.07545 | 34038 ft | 411 kts | 233° |
| 2026-05-04 06:58 | 39.48564 | -80.13093 | 34025 ft | 411 kts | 233° |
| 2026-05-04 06:59 | 39.44775 | -80.18634 | 34026 ft | 411 kts | 233° |
| 2026-05-04 06:59 | 39.41007 | -80.24134 | 34033 ft | 411 kts | 233° |
| 2026-05-04 07:01 | 39.25816 | -80.46206 | 34029 ft | 411 kts | 233° |
| 2026-05-04 07:02 | 39.22038 | -80.51671 | 34021 ft | 411 kts | 233° |
| 2026-05-04 07:02 | 39.18231 | -80.57170 | 34016 ft | 411 kts | 233° |
| 2026-05-04 07:03 | 39.14416 | -80.62668 | 34010 ft | 411 kts | 233° |
| 2026-05-04 07:03 | 39.10599 | -80.68161 | 34010 ft | 411 kts | 233° |
| 2026-05-04 07:04 | 39.06806 | -80.73608 | 34011 ft | 412 kts | 233° |
| 2026-05-04 07:04 | 39.02981 | -80.79093 | 34011 ft | 412 kts | 233° |
| 2026-05-04 07:05 | 38.99173 | -80.84589 | 34012 ft | 411 kts | 234° |
| 2026-05-04 07:05 | 38.95391 | -80.90110 | 34014 ft | 411 kts | 234° |
| 2026-05-04 07:06 | 38.89743 | -80.98346 | 34012 ft | 411 kts | 234° |
| 2026-05-04 07:07 | 38.85953 | -81.03855 | 34011 ft | 412 kts | 234° |
| 2026-05-04 07:09 | 38.70796 | -81.25771 | 34025 ft | 411 kts | 234° |
| 2026-05-04 07:09 | 38.66995 | -81.31243 | 34026 ft | 411 kts | 234° |
| 2026-05-04 07:10 | 38.63195 | -81.36703 | 34029 ft | 411 kts | 234° |
| 2026-05-04 07:12 | 38.47990 | -81.58467 | 34047 ft | 411 kts | 235° |
| 2026-05-04 07:12 | 38.44198 | -81.63869 | 34038 ft | 411 kts | 235° |
| 2026-05-04 07:13 | 38.40373 | -81.69291 | 34035 ft | 412 kts | 233° |
| 2026-05-04 07:13 | 38.35841 | -81.73942 | 34046 ft | 428 kts | 218° |
| 2026-05-04 07:14 | 38.23757 | -81.76936 | 34033 ft | 464 kts | 187° |
| 2026-05-04 07:14 | 38.20526 | -81.76859 | 34041 ft | 465 kts | 187° |
| 2026-05-04 07:15 | 38.14098 | -81.76722 | 34041 ft | 465 kts | 187° |
| 2026-05-04 07:15 | 38.07617 | -81.76614 | 34039 ft | 466 kts | 187° |
| 2026-05-04 07:16 | 38.01127 | -81.76519 | 34040 ft | 467 kts | 187° |
| 2026-05-04 07:16 | 37.94634 | -81.76427 | 34041 ft | 467 kts | 187° |
| 2026-05-04 07:17 | 37.88171 | -81.76337 | 34048 ft | 468 kts | 187° |
| 2026-05-04 07:17 | 37.81651 | -81.76245 | 34041 ft | 469 kts | 187° |
| 2026-05-04 07:18 | 37.75124 | -81.76156 | 34043 ft | 469 kts | 187° |
| 2026-05-04 07:18 | 37.68588 | -81.76066 | 34047 ft | 470 kts | 187° |
| 2026-05-04 07:19 | 37.62047 | -81.75975 | 34047 ft | 470 kts | 188° |
| 2026-05-04 07:19 | 37.55538 | -81.75885 | 34049 ft | 471 kts | 187° |
| 2026-05-04 07:20 | 37.48981 | -81.75793 | 34040 ft | 471 kts | 187° |
| 2026-05-04 07:20 | 37.45716 | -81.75747 | 33808 ft | 470 kts | 187° |
| 2026-05-04 07:20 | 37.42428 | -81.75705 | 33521 ft | 474 kts | 187° |
| 2026-05-04 07:22 | 37.19413 | -81.75387 | 31655 ft | 471 kts | 187° |
| 2026-05-04 07:22 | 37.16135 | -81.75342 | 31397 ft | 471 kts | 187° |
| 2026-05-04 07:23 | 37.12862 | -81.75298 | 31138 ft | 470 kts | 187° |
| 2026-05-04 07:23 | 37.09612 | -81.75377 | 30883 ft | 465 kts | 191° |
| 2026-05-04 07:23 | 37.06389 | -81.75609 | 30625 ft | 463 kts | 192° |
| 2026-05-04 07:23 | 37.03175 | -81.75867 | 30380 ft | 462 kts | 192° |
| 2026-05-04 07:24 | 36.99967 | -81.76124 | 30117 ft | 462 kts | 192° |
| 2026-05-04 07:24 | 36.96806 | -81.76374 | 29829 ft | 461 kts | 192° |
| 2026-05-04 07:24 | 36.93605 | -81.76638 | 29546 ft | 461 kts | 192° |
| 2026-05-04 07:24 | 36.90403 | -81.76920 | 29248 ft | 462 kts | 192° |
| 2026-05-04 07:25 | 36.87198 | -81.77204 | 28959 ft | 462 kts | 192° |
| 2026-05-04 07:26 | 36.65267 | -81.79116 | 25186 ft | 437 kts | 191° |
| 2026-05-04 07:27 | 36.62243 | -81.79380 | 24612 ft | 433 kts | 191° |
| 2026-05-04 07:27 | 36.59251 | -81.79640 | 24060 ft | 429 kts | 191° |
| 2026-05-04 07:27 | 36.56285 | -81.79899 | 23531 ft | 425 kts | 191° |
| 2026-05-04 07:27 | 36.53383 | -81.80146 | 23364 ft | 410 kts | 191° |
| 2026-05-04 07:28 | 36.50584 | -81.80383 | 23233 ft | 396 kts | 191° |
| 2026-05-04 07:28 | 36.47884 | -81.80615 | 23103 ft | 382 kts | 191° |
| 2026-05-04 07:28 | 36.45244 | -81.80731 | 22651 ft | 384 kts | 184° |
| 2026-05-04 07:28 | 36.42594 | -81.80051 | 22195 ft | 395 kts | 164° |
| 2026-05-04 07:29 | 36.40117 | -81.78589 | 21841 ft | 394 kts | 158° |
| 2026-05-04 07:29 | 36.37751 | -81.76989 | 21395 ft | 392 kts | 156° |
| 2026-05-04 07:29 | 36.35377 | -81.75355 | 20942 ft | 389 kts | 156° |
| 2026-05-04 07:29 | 36.33019 | -81.73738 | 20507 ft | 386 kts | 156° |
| 2026-05-04 07:30 | 36.30669 | -81.72137 | 20078 ft | 385 kts | 156° |
| 2026-05-04 07:30 | 36.28326 | -81.70547 | 19652 ft | 384 kts | 156° |
| 2026-05-04 07:30 | 36.25978 | -81.68959 | 19395 ft | 386 kts | 156° |
| 2026-05-04 07:30 | 36.23621 | -81.67368 | 19149 ft | 386 kts | 156° |
| 2026-05-04 07:31 | 36.21266 | -81.65779 | 18909 ft | 385 kts | 156° |
| 2026-05-04 07:31 | 36.18921 | -81.64198 | 18670 ft | 383 kts | 156° |
| 2026-05-04 07:33 | 36.02952 | -81.53464 | 16331 ft | 365 kts | 156° |
| 2026-05-04 07:33 | 36.00729 | -81.51975 | 15890 ft | 364 kts | 156° |
| 2026-05-04 07:33 | 35.98535 | -81.50507 | 15452 ft | 363 kts | 155° |
| 2026-05-04 07:33 | 35.96322 | -81.49026 | 14989 ft | 361 kts | 155° |
| 2026-05-04 07:34 | 35.94120 | -81.47555 | 14558 ft | 359 kts | 155° |
| 2026-05-04 07:34 | 35.91930 | -81.46092 | 14115 ft | 357 kts | 155° |
| 2026-05-04 07:34 | 35.89750 | -81.44635 | 13648 ft | 355 kts | 155° |
| 2026-05-04 07:34 | 35.87592 | -81.43194 | 13165 ft | 351 kts | 155° |
| 2026-05-04 07:35 | 35.85452 | -81.41766 | 12743 ft | 348 kts | 155° |
| 2026-05-04 07:35 | 35.83330 | -81.40350 | 12315 ft | 346 kts | 155° |
| 2026-05-04 07:35 | 35.81233 | -81.38952 | 12000 ft | 339 kts | 154° |
| 2026-05-04 07:35 | 35.79197 | -81.37594 | 11867 ft | 326 kts | 155° |
| 2026-05-04 07:36 | 35.77263 | -81.36267 | 11532 ft | 322 kts | 154° |
| 2026-05-04 07:36 | 35.75326 | -81.34906 | 11147 ft | 320 kts | 153° |
| 2026-05-04 07:38 | 35.66324 | -81.19637 | 8290 ft | 308 kts | 123° |
| 2026-05-04 07:38 | 35.65199 | -81.17451 | 7866 ft | 305 kts | 125° |
| 2026-05-04 07:38 | 35.63805 | -81.15522 | 7435 ft | 301 kts | 143° |
| 2026-05-04 07:38 | 35.62191 | -81.13927 | 7130 ft | 294 kts | 143° |
| 2026-05-04 07:39 | 35.60630 | -81.12340 | 6805 ft | 289 kts | 142° |
| 2026-05-04 07:39 | 35.59099 | -81.10762 | 6435 ft | 286 kts | 142° |
| 2026-05-04 07:39 | 35.57588 | -81.09193 | 6053 ft | 282 kts | 142° |
| 2026-05-04 07:39 | 35.56104 | -81.07646 | 5699 ft | 279 kts | 142° |
| 2026-05-04 07:40 | 35.54630 | -81.06110 | 5352 ft | 277 kts | 143° |
| 2026-05-04 07:40 | 35.53165 | -81.04581 | 5055 ft | 275 kts | 143° |
| 2026-05-04 07:40 | 35.51732 | -81.03084 | 4990 ft | 274 kts | 143° |
| 2026-05-04 07:40 | 35.50280 | -81.01568 | 4986 ft | 274 kts | 143° |
| 2026-05-04 07:41 | 35.48823 | -81.00049 | 4987 ft | 275 kts | 143° |
| 2026-05-04 07:41 | 35.47367 | -80.98530 | 4986 ft | 275 kts | 143° |
| 2026-05-04 07:41 | 35.45909 | -80.97012 | 4987 ft | 275 kts | 144° |
| 2026-05-04 07:41 | 35.44312 | -80.95790 | 4990 ft | 269 kts | 161° |
| 2026-05-04 07:42 | 35.42529 | -80.95220 | 4808 ft | 264 kts | 178° |
| 2026-05-04 07:42 | 35.40708 | -80.95091 | 4454 ft | 261 kts | 182° |
| 2026-05-04 07:42 | 35.38900 | -80.95019 | 4050 ft | 260 kts | 181° |
| 2026-05-04 07:42 | 35.37128 | -80.94879 | 3676 ft | 257 kts | 180° |
| 2026-05-04 07:43 | 35.35358 | -80.94715 | 3330 ft | 252 kts | 180° |
| 2026-05-04 07:43 | 35.33643 | -80.94568 | 2996 ft | 242 kts | 180° |
| 2026-05-04 07:43 | 35.32000 | -80.94429 | 2681 ft | 231 kts | 181° |
| 2026-05-04 07:43 | 35.30453 | -80.94296 | 2415 ft | 215 kts | 180° |
| 2026-05-04 07:44 | 35.29028 | -80.94174 | 2120 ft | 194 kts | 181° |
| 2026-05-04 07:44 | 35.27749 | -80.94066 | 1853 ft | 175 kts | 181° |
| 2026-05-04 07:44 | 35.26605 | -80.93969 | 1648 ft | 156 kts | 180° |
| 2026-05-04 07:44 | 35.25574 | -80.93882 | 1396 ft | 141 kts | 178° |
| 2026-05-04 07:45 | 35.24651 | -80.93803 | 1218 ft | 130 kts | 176° |
| 2026-05-04 07:45 | 35.23757 | -80.93726 | 1070 ft | 129 kts | 175° |
| 2026-05-04 07:45 | 35.22865 | -80.93644 | 891 ft | 128 kts | 176° |
| 2026-05-04 07:45 | 35.21989 | -80.93575 | 767 ft | 117 kts | 175° |
| 2026-05-04 07:46 | 35.21272 | -80.93511 | 745 ft | 81 kts | 176° |
| 2026-05-04 07:46 | 35.20885 | -80.93482 | 742 ft | 38 kts | 176° |
| 2026-05-04 07:46 | 35.20639 | -80.93471 | 741 ft | 34 kts | 187° |
| 2026-05-04 07:46 | 35.20508 | -80.93554 | 739 ft | 17 kts | 277° |
| 2026-05-04 07:47 | 35.20600 | -80.93590 | 740 ft | 14 kts | 354° |
| 2026-05-04 07:47 | 35.20694 | -80.93599 | 740 ft | 13 kts | 356° |
| 2026-05-04 07:47 | 35.20786 | -80.93606 | 741 ft | 14 kts | 356° |
| 2026-05-04 07:49 | 35.21562 | -80.93834 | 744 ft | 22 kts | 319° |
| 2026-05-04 07:49 | 35.21693 | -80.93972 | 744 ft | 27 kts | 318° |
| 2026-05-04 07:49 | 35.21745 | -80.94015 | 744 ft | 3 kts | 19° |
| 2026-05-04 07:50 | 35.21782 | -80.93990 | 744 ft | 9 kts | 19° |
| 2026-05-04 07:50 | 35.21852 | -80.94024 | 746 ft | 14 kts | 330° |
| 2026-05-04 07:50 | 35.21903 | -80.94133 | 746 ft | 16 kts | 278° |
| 2026-05-04 07:50 | 35.21902 | -80.94186 | 745 ft | 4 kts | 253° |
| 2026-05-04 07:51 | 35.21899 | -80.94200 | 745 ft | 0 kts | 253° |